sensor_id;sensor_type;location;lat;lon;timestamp;P1;durP1;ratioP1;P2;durP2;ratioP2
68940;SDS011;55982;51.476;7.552;2023-07-22T00:00:25;16.58;;;10.55;;
68940;SDS011;55982;51.476;7.552;2023-07-22T00:02:51;16.80;;;9.70;;
68940;SDS011;55982;51.476;7.552;2023-07-22T00:05:16;15.48;;;9.43;;
68940;SDS011;55982;51.476;7.552;2023-07-22T00:07:47;17.13;;;10.40;;
68940;SDS011;55982;51.476;7.552;2023-07-22T00:10:12;17.55;;;10.65;;
68940;SDS011;55982;51.476;7.552;2023-07-22T00:12:38;15.68;;;9.75;;
68940;SDS011;55982;51.476;7.552;2023-07-22T00:15:03;19.15;;;10.32;;
68940;SDS011;55982;51.476;7.552;2023-07-22T00:17:29;16.85;;;10.95;;
68940;SDS011;55982;51.476;7.552;2023-07-22T00:19:54;23.17;;;10.95;;
68940;SDS011;55982;51.476;7.552;2023-07-22T00:22:20;15.45;;;11.05;;
68940;SDS011;55982;51.476;7.552;2023-07-22T00:24:46;20.33;;;11.30;;
68940;SDS011;55982;51.476;7.552;2023-07-22T00:27:12;18.23;;;10.95;;
68940;SDS011;55982;51.476;7.552;2023-07-22T00:29:37;18.48;;;10.73;;
68940;SDS011;55982;51.476;7.552;2023-07-22T00:32:04;17.42;;;10.70;;
68940;SDS011;55982;51.476;7.552;2023-07-22T00:34:32;17.33;;;10.70;;
68940;SDS011;55982;51.476;7.552;2023-07-22T00:36:57;17.35;;;10.07;;
68940;SDS011;55982;51.476;7.552;2023-07-22T00:39:24;18.85;;;10.90;;
68940;SDS011;55982;51.476;7.552;2023-07-22T00:41:49;18.40;;;10.63;;
68940;SDS011;55982;51.476;7.552;2023-07-22T00:44:14;17.10;;;10.73;;
68940;SDS011;55982;51.476;7.552;2023-07-22T00:46:40;21.02;;;11.00;;
68940;SDS011;55982;51.476;7.552;2023-07-22T00:49:06;15.43;;;10.15;;
68940;SDS011;55982;51.476;7.552;2023-07-22T00:51:32;21.33;;;11.65;;
68940;SDS011;55982;51.476;7.552;2023-07-22T00:53:58;19.10;;;10.40;;
68940;SDS011;55982;51.476;7.552;2023-07-22T00:56:23;20.23;;;10.93;;
68940;SDS011;55982;51.476;7.552;2023-07-22T00:58:49;18.17;;;10.63;;
68940;SDS011;55982;51.476;7.552;2023-07-22T01:01:15;19.17;;;11.05;;
68940;SDS011;55982;51.476;7.552;2023-07-22T01:03:40;20.70;;;11.45;;
68940;SDS011;55982;51.476;7.552;2023-07-22T01:06:06;19.40;;;10.73;;
68940;SDS011;55982;51.476;7.552;2023-07-22T01:08:32;21.00;;;10.85;;
68940;SDS011;55982;51.476;7.552;2023-07-22T01:10:57;18.95;;;11.27;;
68940;SDS011;55982;51.476;7.552;2023-07-22T01:13:24;19.50;;;11.75;;
68940;SDS011;55982;51.476;7.552;2023-07-22T01:15:49;22.33;;;12.43;;
68940;SDS011;55982;51.476;7.552;2023-07-22T01:18:15;21.63;;;11.93;;
68940;SDS011;55982;51.476;7.552;2023-07-22T01:20:40;23.25;;;12.93;;
68940;SDS011;55982;51.476;7.552;2023-07-22T01:23:07;21.77;;;12.65;;
68940;SDS011;55982;51.476;7.552;2023-07-22T01:25:32;19.20;;;12.25;;
68940;SDS011;55982;51.476;7.552;2023-07-22T01:27:57;25.75;;;12.80;;
68940;SDS011;55982;51.476;7.552;2023-07-22T01:30:23;23.40;;;13.02;;
68940;SDS011;55982;51.476;7.552;2023-07-22T01:32:48;26.40;;;13.18;;
68940;SDS011;55982;51.476;7.552;2023-07-22T01:35:15;21.40;;;12.50;;
68940;SDS011;55982;51.476;7.552;2023-07-22T01:37:40;24.60;;;13.75;;
68940;SDS011;55982;51.476;7.552;2023-07-22T01:40:06;24.15;;;14.07;;
68940;SDS011;55982;51.476;7.552;2023-07-22T01:42:38;24.33;;;13.10;;
68940;SDS011;55982;51.476;7.552;2023-07-22T01:45:04;25.05;;;12.98;;
68940;SDS011;55982;51.476;7.552;2023-07-22T01:47:33;24.77;;;13.20;;
68940;SDS011;55982;51.476;7.552;2023-07-22T01:49:59;21.88;;;12.65;;
68940;SDS011;55982;51.476;7.552;2023-07-22T01:52:25;23.10;;;12.38;;
68940;SDS011;55982;51.476;7.552;2023-07-22T01:54:50;22.60;;;12.50;;
68940;SDS011;55982;51.476;7.552;2023-07-22T01:57:15;26.08;;;12.30;;
68940;SDS011;55982;51.476;7.552;2023-07-22T01:59:41;21.10;;;12.57;;
68940;SDS011;55982;51.476;7.552;2023-07-22T02:02:06;20.45;;;13.07;;
68940;SDS011;55982;51.476;7.552;2023-07-22T02:04:31;21.92;;;12.25;;
68940;SDS011;55982;51.476;7.552;2023-07-22T02:06:57;23.90;;;12.40;;
68940;SDS011;55982;51.476;7.552;2023-07-22T02:09:22;24.27;;;12.70;;
68940;SDS011;55982;51.476;7.552;2023-07-22T02:11:47;25.23;;;12.95;;
68940;SDS011;55982;51.476;7.552;2023-07-22T02:14:13;20.80;;;11.95;;
68940;SDS011;55982;51.476;7.552;2023-07-22T02:16:38;20.65;;;11.65;;
68940;SDS011;55982;51.476;7.552;2023-07-22T02:19:04;18.63;;;11.88;;
68940;SDS011;55982;51.476;7.552;2023-07-22T02:21:30;23.20;;;12.20;;
68940;SDS011;55982;51.476;7.552;2023-07-22T02:23:55;22.35;;;12.20;;
68940;SDS011;55982;51.476;7.552;2023-07-22T02:26:20;22.75;;;12.45;;
68940;SDS011;55982;51.476;7.552;2023-07-22T02:28:46;20.27;;;11.70;;
68940;SDS011;55982;51.476;7.552;2023-07-22T02:31:11;25.08;;;12.75;;
68940;SDS011;55982;51.476;7.552;2023-07-22T02:33:37;23.15;;;11.90;;
68940;SDS011;55982;51.476;7.552;2023-07-22T02:36:03;22.75;;;12.27;;
68940;SDS011;55982;51.476;7.552;2023-07-22T02:38:28;27.75;;;13.25;;
68940;SDS011;55982;51.476;7.552;2023-07-22T02:40:54;23.13;;;12.57;;
68940;SDS011;55982;51.476;7.552;2023-07-22T02:43:19;25.60;;;12.55;;
68940;SDS011;55982;51.476;7.552;2023-07-22T02:45:44;21.52;;;12.07;;
68940;SDS011;55982;51.476;7.552;2023-07-22T02:48:10;24.23;;;12.73;;
68940;SDS011;55982;51.476;7.552;2023-07-22T02:50:35;20.58;;;11.77;;
68940;SDS011;55982;51.476;7.552;2023-07-22T02:53:01;23.92;;;11.85;;
68940;SDS011;55982;51.476;7.552;2023-07-22T02:55:27;23.55;;;12.23;;
68940;SDS011;55982;51.476;7.552;2023-07-22T02:57:53;20.70;;;12.45;;
68940;SDS011;55982;51.476;7.552;2023-07-22T03:00:19;20.70;;;11.23;;
68940;SDS011;55982;51.476;7.552;2023-07-22T03:02:52;20.30;;;11.48;;
68940;SDS011;55982;51.476;7.552;2023-07-22T03:05:18;20.23;;;11.57;;
68940;SDS011;55982;51.476;7.552;2023-07-22T03:07:45;18.50;;;11.48;;
68940;SDS011;55982;51.476;7.552;2023-07-22T03:10:10;20.92;;;11.88;;
68940;SDS011;55982;51.476;7.552;2023-07-22T03:12:36;20.50;;;12.00;;
68940;SDS011;55982;51.476;7.552;2023-07-22T03:15:02;20.05;;;12.15;;
68940;SDS011;55982;51.476;7.552;2023-07-22T03:17:29;22.13;;;11.57;;
68940;SDS011;55982;51.476;7.552;2023-07-22T03:19:54;23.00;;;11.23;;
68940;SDS011;55982;51.476;7.552;2023-07-22T03:22:20;19.13;;;10.75;;
68940;SDS011;55982;51.476;7.552;2023-07-22T03:24:45;18.73;;;11.13;;
68940;SDS011;55982;51.476;7.552;2023-07-22T03:27:11;22.45;;;10.73;;
68940;SDS011;55982;51.476;7.552;2023-07-22T03:29:38;16.77;;;10.13;;
68940;SDS011;55982;51.476;7.552;2023-07-22T03:32:04;17.42;;;10.25;;
68940;SDS011;55982;51.476;7.552;2023-07-22T03:34:30;17.17;;;10.68;;
68940;SDS011;55982;51.476;7.552;2023-07-22T03:36:56;16.80;;;10.40;;
68940;SDS011;55982;51.476;7.552;2023-07-22T03:39:22;20.42;;;10.80;;
68940;SDS011;55982;51.476;7.552;2023-07-22T03:41:47;18.20;;;10.85;;
68940;SDS011;55982;51.476;7.552;2023-07-22T03:44:13;18.00;;;10.05;;
68940;SDS011;55982;51.476;7.552;2023-07-22T03:46:39;21.25;;;10.55;;
68940;SDS011;55982;51.476;7.552;2023-07-22T03:49:04;16.63;;;10.25;;
68940;SDS011;55982;51.476;7.552;2023-07-22T03:51:30;20.10;;;10.70;;
68940;SDS011;55982;51.476;7.552;2023-07-22T03:53:55;17.88;;;11.20;;
68940;SDS011;55982;51.476;7.552;2023-07-22T03:56:21;17.48;;;10.50;;
68940;SDS011;55982;51.476;7.552;2023-07-22T03:58:48;17.95;;;10.60;;
68940;SDS011;55982;51.476;7.552;2023-07-22T04:01:14;20.02;;;10.95;;
68940;SDS011;55982;51.476;7.552;2023-07-22T04:03:39;19.13;;;11.02;;
68940;SDS011;55982;51.476;7.552;2023-07-22T04:06:05;17.45;;;11.15;;
68940;SDS011;55982;51.476;7.552;2023-07-22T04:08:30;21.02;;;10.45;;
68940;SDS011;55982;51.476;7.552;2023-07-22T04:10:56;19.45;;;10.15;;
68940;SDS011;55982;51.476;7.552;2023-07-22T04:13:23;21.05;;;11.15;;
68940;SDS011;55982;51.476;7.552;2023-07-22T04:15:49;18.83;;;10.63;;
68940;SDS011;55982;51.476;7.552;2023-07-22T04:18:15;21.27;;;10.40;;
68940;SDS011;55982;51.476;7.552;2023-07-22T04:20:41;18.75;;;10.40;;
68940;SDS011;55982;51.476;7.552;2023-07-22T04:23:07;18.27;;;10.07;;
68940;SDS011;55982;51.476;7.552;2023-07-22T04:25:32;19.33;;;10.93;;
68940;SDS011;55982;51.476;7.552;2023-07-22T04:27:58;16.88;;;9.75;;
68940;SDS011;55982;51.476;7.552;2023-07-22T04:30:24;17.10;;;10.10;;
68940;SDS011;55982;51.476;7.552;2023-07-22T04:32:49;19.35;;;10.75;;
68940;SDS011;55982;51.476;7.552;2023-07-22T04:35:16;16.20;;;10.50;;
68940;SDS011;55982;51.476;7.552;2023-07-22T04:37:42;15.50;;;10.88;;
68940;SDS011;55982;51.476;7.552;2023-07-22T04:40:09;20.48;;;10.75;;
68940;SDS011;55982;51.476;7.552;2023-07-22T04:42:39;19.05;;;10.90;;
68940;SDS011;55982;51.476;7.552;2023-07-22T04:45:04;17.60;;;9.98;;
68940;SDS011;55982;51.476;7.552;2023-07-22T04:47:31;17.25;;;10.27;;
68940;SDS011;55982;51.476;7.552;2023-07-22T04:49:56;20.23;;;9.88;;
68940;SDS011;55982;51.476;7.552;2023-07-22T04:52:22;19.88;;;10.18;;
68940;SDS011;55982;51.476;7.552;2023-07-22T04:54:47;16.88;;;9.73;;
68940;SDS011;55982;51.476;7.552;2023-07-22T04:57:12;20.67;;;11.02;;
68940;SDS011;55982;51.476;7.552;2023-07-22T04:59:38;19.85;;;10.73;;
68940;SDS011;55982;51.476;7.552;2023-07-22T05:02:03;15.68;;;9.82;;
68940;SDS011;55982;51.476;7.552;2023-07-22T05:04:29;19.70;;;10.43;;
68940;SDS011;55982;51.476;7.552;2023-07-22T05:06:54;17.63;;;9.65;;
68940;SDS011;55982;51.476;7.552;2023-07-22T05:09:20;15.60;;;9.73;;
68940;SDS011;55982;51.476;7.552;2023-07-22T05:11:45;17.08;;;9.98;;
68940;SDS011;55982;51.476;7.552;2023-07-22T05:14:11;14.50;;;9.57;;
68940;SDS011;55982;51.476;7.552;2023-07-22T05:16:36;18.83;;;9.30;;
68940;SDS011;55982;51.476;7.552;2023-07-22T05:19:02;19.88;;;8.88;;
68940;SDS011;55982;51.476;7.552;2023-07-22T05:21:27;11.15;;;8.23;;
68940;SDS011;55982;51.476;7.552;2023-07-22T05:23:52;13.07;;;8.57;;
68940;SDS011;55982;51.476;7.552;2023-07-22T05:26:18;16.85;;;8.43;;
68940;SDS011;55982;51.476;7.552;2023-07-22T05:28:43;13.55;;;8.40;;
68940;SDS011;55982;51.476;7.552;2023-07-22T05:31:08;12.95;;;7.38;;
68940;SDS011;55982;51.476;7.552;2023-07-22T05:33:34;21.20;;;8.05;;
68940;SDS011;55982;51.476;7.552;2023-07-22T05:36:00;12.88;;;7.88;;
68940;SDS011;55982;51.476;7.552;2023-07-22T05:38:26;15.82;;;8.38;;
68940;SDS011;55982;51.476;7.552;2023-07-22T05:40:52;13.05;;;8.02;;
68940;SDS011;55982;51.476;7.552;2023-07-22T05:43:18;15.50;;;8.52;;
68940;SDS011;55982;51.476;7.552;2023-07-22T05:45:43;11.30;;;7.40;;
68940;SDS011;55982;51.476;7.552;2023-07-22T05:48:08;13.13;;;8.18;;
68940;SDS011;55982;51.476;7.552;2023-07-22T05:50:34;11.88;;;8.05;;
68940;SDS011;55982;51.476;7.552;2023-07-22T05:52:59;13.82;;;7.35;;
68940;SDS011;55982;51.476;7.552;2023-07-22T05:55:25;19.27;;;8.05;;
68940;SDS011;55982;51.476;7.552;2023-07-22T05:57:51;13.93;;;8.20;;
68940;SDS011;55982;51.476;7.552;2023-07-22T06:00:17;11.63;;;7.68;;
68940;SDS011;55982;51.476;7.552;2023-07-22T06:02:42;13.05;;;7.93;;
68940;SDS011;55982;51.476;7.552;2023-07-22T06:05:08;13.13;;;7.93;;
68940;SDS011;55982;51.476;7.552;2023-07-22T06:07:33;13.57;;;7.88;;
68940;SDS011;55982;51.476;7.552;2023-07-22T06:09:59;10.52;;;7.25;;
68940;SDS011;55982;51.476;7.552;2023-07-22T06:12:24;14.25;;;7.85;;
68940;SDS011;55982;51.476;7.552;2023-07-22T06:14:49;14.23;;;7.65;;
68940;SDS011;55982;51.476;7.552;2023-07-22T06:17:15;11.23;;;6.93;;
68940;SDS011;55982;51.476;7.552;2023-07-22T06:19:40;11.57;;;7.10;;
68940;SDS011;55982;51.476;7.552;2023-07-22T06:22:06;11.07;;;6.68;;
68940;SDS011;55982;51.476;7.552;2023-07-22T06:24:31;10.57;;;6.47;;
68940;SDS011;55982;51.476;7.552;2023-07-22T06:26:57;9.23;;;6.97;;
68940;SDS011;55982;51.476;7.552;2023-07-22T06:29:23;11.32;;;6.78;;
68940;SDS011;55982;51.476;7.552;2023-07-22T06:31:48;9.25;;;6.50;;
68940;SDS011;55982;51.476;7.552;2023-07-22T06:34:13;10.52;;;6.78;;
68940;SDS011;55982;51.476;7.552;2023-07-22T06:36:39;11.13;;;6.25;;
68940;SDS011;55982;51.476;7.552;2023-07-22T06:39:04;10.65;;;6.40;;
68940;SDS011;55982;51.476;7.552;2023-07-22T06:41:29;8.85;;;6.47;;
68940;SDS011;55982;51.476;7.552;2023-07-22T06:43:55;11.95;;;7.00;;
68940;SDS011;55982;51.476;7.552;2023-07-22T06:46:20;11.68;;;6.45;;
68940;SDS011;55982;51.476;7.552;2023-07-22T06:48:46;11.05;;;6.47;;
68940;SDS011;55982;51.476;7.552;2023-07-22T06:51:12;11.52;;;6.97;;
68940;SDS011;55982;51.476;7.552;2023-07-22T06:53:38;10.38;;;6.80;;
68940;SDS011;55982;51.476;7.552;2023-07-22T06:56:03;11.65;;;7.30;;
68940;SDS011;55982;51.476;7.552;2023-07-22T06:58:29;12.75;;;6.95;;
68940;SDS011;55982;51.476;7.552;2023-07-22T07:00:55;9.35;;;6.63;;
68940;SDS011;55982;51.476;7.552;2023-07-22T07:03:21;9.95;;;6.95;;
68940;SDS011;55982;51.476;7.552;2023-07-22T07:05:52;11.73;;;6.70;;
68940;SDS011;55982;51.476;7.552;2023-07-22T07:08:21;12.13;;;6.60;;
68940;SDS011;55982;51.476;7.552;2023-07-22T07:10:46;12.35;;;6.35;;
68940;SDS011;55982;51.476;7.552;2023-07-22T07:13:12;10.25;;;6.63;;
68940;SDS011;55982;51.476;7.552;2023-07-22T07:15:37;9.40;;;6.45;;
68940;SDS011;55982;51.476;7.552;2023-07-22T07:18:02;10.63;;;7.18;;
68940;SDS011;55982;51.476;7.552;2023-07-22T07:20:28;7.68;;;5.90;;
68940;SDS011;55982;51.476;7.552;2023-07-22T07:22:53;12.77;;;6.63;;
68940;SDS011;55982;51.476;7.552;2023-07-22T07:25:19;11.85;;;6.30;;
68940;SDS011;55982;51.476;7.552;2023-07-22T07:27:44;10.32;;;5.95;;
68940;SDS011;55982;51.476;7.552;2023-07-22T07:30:09;10.05;;;6.35;;
68940;SDS011;55982;51.476;7.552;2023-07-22T07:32:35;10.40;;;6.20;;
68940;SDS011;55982;51.476;7.552;2023-07-22T07:35:01;9.77;;;6.30;;
68940;SDS011;55982;51.476;7.552;2023-07-22T07:37:27;10.27;;;6.53;;
68940;SDS011;55982;51.476;7.552;2023-07-22T07:39:52;10.60;;;6.43;;
68940;SDS011;55982;51.476;7.552;2023-07-22T07:42:17;7.00;;;5.63;;
68940;SDS011;55982;51.476;7.552;2023-07-22T07:44:43;10.57;;;6.38;;
68940;SDS011;55982;51.476;7.552;2023-07-22T07:47:08;8.10;;;6.38;;
68940;SDS011;55982;51.476;7.552;2023-07-22T07:49:34;9.75;;;6.07;;
68940;SDS011;55982;51.476;7.552;2023-07-22T07:51:59;10.07;;;6.30;;
68940;SDS011;55982;51.476;7.552;2023-07-22T07:54:25;10.85;;;6.60;;
68940;SDS011;55982;51.476;7.552;2023-07-22T07:56:50;12.60;;;6.38;;
68940;SDS011;55982;51.476;7.552;2023-07-22T07:59:15;11.40;;;7.13;;
68940;SDS011;55982;51.476;7.552;2023-07-22T08:01:41;8.68;;;6.53;;
68940;SDS011;55982;51.476;7.552;2023-07-22T08:04:07;12.77;;;7.00;;
68940;SDS011;55982;51.476;7.552;2023-07-22T08:06:33;10.23;;;6.43;;
68940;SDS011;55982;51.476;7.552;2023-07-22T08:08:59;8.48;;;6.45;;
68940;SDS011;55982;51.476;7.552;2023-07-22T08:11:24;9.27;;;6.22;;
68940;SDS011;55982;51.476;7.552;2023-07-22T08:13:49;10.90;;;6.25;;
68940;SDS011;55982;51.476;7.552;2023-07-22T08:16:16;9.88;;;6.05;;
68940;SDS011;55982;51.476;7.552;2023-07-22T08:18:42;9.40;;;6.22;;
68940;SDS011;55982;51.476;7.552;2023-07-22T08:21:08;10.57;;;7.03;;
68940;SDS011;55982;51.476;7.552;2023-07-22T08:23:35;12.55;;;6.35;;
68940;SDS011;55982;51.476;7.552;2023-07-22T08:26:01;9.30;;;6.57;;
68940;SDS011;55982;51.476;7.552;2023-07-22T08:28:29;8.60;;;5.88;;
68940;SDS011;55982;51.476;7.552;2023-07-22T08:30:55;8.90;;;6.55;;
68940;SDS011;55982;51.476;7.552;2023-07-22T08:33:21;12.93;;;7.47;;
68940;SDS011;55982;51.476;7.552;2023-07-22T08:35:47;11.10;;;6.68;;
68940;SDS011;55982;51.476;7.552;2023-07-22T08:38:13;8.55;;;6.95;;
68940;SDS011;55982;51.476;7.552;2023-07-22T08:40:39;9.98;;;7.03;;
68940;SDS011;55982;51.476;7.552;2023-07-22T08:43:06;8.75;;;6.20;;
68940;SDS011;55982;51.476;7.552;2023-07-22T08:45:33;8.80;;;6.10;;
68940;SDS011;55982;51.476;7.552;2023-07-22T08:48:02;9.90;;;6.10;;
68940;SDS011;55982;51.476;7.552;2023-07-22T08:50:44;8.63;;;5.97;;
68940;SDS011;55982;51.476;7.552;2023-07-22T08:53:15;11.05;;;6.72;;
68940;SDS011;55982;51.476;7.552;2023-07-22T08:55:41;10.20;;;6.10;;
68940;SDS011;55982;51.476;7.552;2023-07-22T08:58:10;8.48;;;6.28;;
68940;SDS011;55982;51.476;7.552;2023-07-22T09:00:37;11.32;;;6.60;;
68940;SDS011;55982;51.476;7.552;2023-07-22T09:03:03;8.60;;;5.68;;
68940;SDS011;55982;51.476;7.552;2023-07-22T09:05:30;7.35;;;5.43;;
68940;SDS011;55982;51.476;7.552;2023-07-22T09:07:57;13.13;;;6.35;;
68940;SDS011;55982;51.476;7.552;2023-07-22T09:10:24;8.02;;;5.80;;
68940;SDS011;55982;51.476;7.552;2023-07-22T09:12:52;7.18;;;6.18;;
68940;SDS011;55982;51.476;7.552;2023-07-22T09:15:17;11.35;;;6.45;;
68940;SDS011;55982;51.476;7.552;2023-07-22T09:17:43;8.25;;;6.20;;
68940;SDS011;55982;51.476;7.552;2023-07-22T09:20:09;8.07;;;6.28;;
68940;SDS011;55982;51.476;7.552;2023-07-22T09:22:39;7.40;;;5.70;;
68940;SDS011;55982;51.476;7.552;2023-07-22T09:25:16;6.63;;;5.60;;
68940;SDS011;55982;51.476;7.552;2023-07-22T09:27:47;8.45;;;6.13;;
68940;SDS011;55982;51.476;7.552;2023-07-22T09:32:53;7.53;;;5.72;;
68940;SDS011;55982;51.476;7.552;2023-07-22T09:35:20;9.15;;;6.22;;
68940;SDS011;55982;51.476;7.552;2023-07-22T09:37:46;9.10;;;5.97;;
68940;SDS011;55982;51.476;7.552;2023-07-22T09:42:55;9.32;;;5.85;;
68940;SDS011;55982;51.476;7.552;2023-07-22T09:45:23;6.68;;;5.68;;
68940;SDS011;55982;51.476;7.552;2023-07-22T09:47:50;9.10;;;5.78;;
68940;SDS011;55982;51.476;7.552;2023-07-22T09:50:18;9.50;;;5.78;;
68940;SDS011;55982;51.476;7.552;2023-07-22T09:55:11;6.30;;;5.07;;
68940;SDS011;55982;51.476;7.552;2023-07-22T09:57:38;8.45;;;5.68;;
68940;SDS011;55982;51.476;7.552;2023-07-22T10:00:08;6.60;;;4.90;;
68940;SDS011;55982;51.476;7.552;2023-07-22T10:02:35;8.18;;;5.47;;
68940;SDS011;55982;51.476;7.552;2023-07-22T10:05:02;5.90;;;4.82;;
68940;SDS011;55982;51.476;7.552;2023-07-22T10:07:30;7.82;;;5.50;;
68940;SDS011;55982;51.476;7.552;2023-07-22T10:09:59;5.68;;;4.88;;
68940;SDS011;55982;51.476;7.552;2023-07-22T10:12:25;7.35;;;4.90;;
68940;SDS011;55982;51.476;7.552;2023-07-22T10:14:53;8.00;;;5.13;;
68940;SDS011;55982;51.476;7.552;2023-07-22T10:17:18;7.13;;;5.32;;
68940;SDS011;55982;51.476;7.552;2023-07-22T10:19:44;7.93;;;5.40;;
68940;SDS011;55982;51.476;7.552;2023-07-22T10:22:10;6.20;;;4.57;;
68940;SDS011;55982;51.476;7.552;2023-07-22T10:24:36;5.63;;;4.53;;
68940;SDS011;55982;51.476;7.552;2023-07-22T10:27:04;6.18;;;4.70;;
68940;SDS011;55982;51.476;7.552;2023-07-22T10:29:30;7.47;;;5.70;;
68940;SDS011;55982;51.476;7.552;2023-07-22T10:31:57;8.30;;;5.80;;
68940;SDS011;55982;51.476;7.552;2023-07-22T10:34:23;6.43;;;5.25;;
68940;SDS011;55982;51.476;7.552;2023-07-22T10:36:48;8.63;;;5.78;;
68940;SDS011;55982;51.476;7.552;2023-07-22T10:39:27;7.95;;;5.80;;
68940;SDS011;55982;51.476;7.552;2023-07-22T10:42:00;6.63;;;4.80;;
68940;SDS011;55982;51.476;7.552;2023-07-22T10:44:26;6.03;;;4.53;;
68940;SDS011;55982;51.476;7.552;2023-07-22T10:46:56;6.93;;;5.25;;
68940;SDS011;55982;51.476;7.552;2023-07-22T10:49:22;4.70;;;3.83;;
68940;SDS011;55982;51.476;7.552;2023-07-22T10:51:49;5.30;;;4.63;;
68940;SDS011;55982;51.476;7.552;2023-07-22T10:54:30;7.60;;;4.60;;
68940;SDS011;55982;51.476;7.552;2023-07-22T10:57:22;9.57;;;5.25;;
68940;SDS011;55982;51.476;7.552;2023-07-22T10:59:51;7.90;;;4.82;;
68940;SDS011;55982;51.476;7.552;2023-07-22T11:02:24;7.13;;;4.82;;
68940;SDS011;55982;51.476;7.552;2023-07-22T11:04:51;8.30;;;4.78;;
68940;SDS011;55982;51.476;7.552;2023-07-22T11:07:29;5.72;;;4.85;;
68940;SDS011;55982;51.476;7.552;2023-07-22T11:09:56;4.57;;;4.10;;
68940;SDS011;55982;51.476;7.552;2023-07-22T11:12:21;5.90;;;4.45;;
68940;SDS011;55982;51.476;7.552;2023-07-22T11:14:51;5.40;;;4.18;;
68940;SDS011;55982;51.476;7.552;2023-07-22T11:17:18;8.60;;;4.13;;
68940;SDS011;55982;51.476;7.552;2023-07-22T11:19:54;6.85;;;4.10;;
68940;SDS011;55982;51.476;7.552;2023-07-22T11:22:20;5.85;;;3.72;;
68940;SDS011;55982;51.476;7.552;2023-07-22T11:24:46;4.60;;;3.67;;
68940;SDS011;55982;51.476;7.552;2023-07-22T11:27:11;6.82;;;4.20;;
68940;SDS011;55982;51.476;7.552;2023-07-22T11:29:37;4.55;;;3.63;;
68940;SDS011;55982;51.476;7.552;2023-07-22T11:32:02;6.40;;;4.13;;
68940;SDS011;55982;51.476;7.552;2023-07-22T11:34:28;6.15;;;3.90;;
68940;SDS011;55982;51.476;7.552;2023-07-22T11:36:54;6.65;;;3.60;;
68940;SDS011;55982;51.476;7.552;2023-07-22T11:39:22;5.60;;;3.40;;
68940;SDS011;55982;51.476;7.552;2023-07-22T11:41:49;7.22;;;3.55;;
68940;SDS011;55982;51.476;7.552;2023-07-22T11:44:17;4.53;;;3.45;;
68940;SDS011;55982;51.476;7.552;2023-07-22T11:46:55;3.42;;;3.05;;
68940;SDS011;55982;51.476;7.552;2023-07-22T11:49:33;3.10;;;2.80;;
68940;SDS011;55982;51.476;7.552;2023-07-22T11:54:27;5.18;;;3.00;;
68940;SDS011;55982;51.476;7.552;2023-07-22T11:56:54;3.97;;;2.78;;
68940;SDS011;55982;51.476;7.552;2023-07-22T11:59:32;3.15;;;2.30;;
68940;SDS011;55982;51.476;7.552;2023-07-22T12:01:59;3.30;;;2.72;;
68940;SDS011;55982;51.476;7.552;2023-07-22T12:04:26;3.83;;;3.10;;
68940;SDS011;55982;51.476;7.552;2023-07-22T12:06:52;3.70;;;2.95;;
68940;SDS011;55982;51.476;7.552;2023-07-22T12:09:17;5.93;;;2.83;;
68940;SDS011;55982;51.476;7.552;2023-07-22T12:11:42;4.30;;;2.75;;
68940;SDS011;55982;51.476;7.552;2023-07-22T12:14:08;4.53;;;3.13;;
68940;SDS011;55982;51.476;7.552;2023-07-22T12:16:36;3.65;;;2.70;;
68940;SDS011;55982;51.476;7.552;2023-07-22T12:19:02;3.78;;;2.72;;
68940;SDS011;55982;51.476;7.552;2023-07-22T12:21:28;3.47;;;3.00;;
68940;SDS011;55982;51.476;7.552;2023-07-22T12:23:54;6.47;;;2.95;;
68940;SDS011;55982;51.476;7.552;2023-07-22T12:26:19;4.65;;;3.13;;
68940;SDS011;55982;51.476;7.552;2023-07-22T12:28:45;3.05;;;2.75;;
68940;SDS011;55982;51.476;7.552;2023-07-22T12:31:10;3.88;;;3.05;;
68940;SDS011;55982;51.476;7.552;2023-07-22T12:33:35;3.00;;;2.58;;
68940;SDS011;55982;51.476;7.552;2023-07-22T12:36:01;3.63;;;2.80;;
68940;SDS011;55982;51.476;7.552;2023-07-22T12:38:26;5.53;;;3.03;;
68940;SDS011;55982;51.476;7.552;2023-07-22T12:40:52;3.20;;;2.53;;
68940;SDS011;55982;51.476;7.552;2023-07-22T12:43:17;4.85;;;3.10;;
68940;SDS011;55982;51.476;7.552;2023-07-22T12:45:42;4.35;;;2.67;;
68940;SDS011;55982;51.476;7.552;2023-07-22T12:48:08;3.63;;;2.47;;
68940;SDS011;55982;51.476;7.552;2023-07-22T12:50:34;3.13;;;2.45;;
68940;SDS011;55982;51.476;7.552;2023-07-22T12:52:59;3.00;;;2.38;;
68940;SDS011;55982;51.476;7.552;2023-07-22T12:55:25;6.20;;;2.40;;
68940;SDS011;55982;51.476;7.552;2023-07-22T12:57:50;3.30;;;2.60;;
68940;SDS011;55982;51.476;7.552;2023-07-22T13:00:16;2.65;;;2.15;;
68940;SDS011;55982;51.476;7.552;2023-07-22T13:02:41;2.85;;;2.33;;
68940;SDS011;55982;51.476;7.552;2023-07-22T13:05:07;5.00;;;2.15;;
68940;SDS011;55982;51.476;7.552;2023-07-22T13:07:32;2.45;;;2.10;;
68940;SDS011;55982;51.476;7.552;2023-07-22T13:09:58;4.18;;;2.45;;
68940;SDS011;55982;51.476;7.552;2023-07-22T13:12:26;3.28;;;2.45;;
68940;SDS011;55982;51.476;7.552;2023-07-22T13:14:51;5.20;;;2.63;;
68940;SDS011;55982;51.476;7.552;2023-07-22T13:17:17;2.72;;;2.28;;
68940;SDS011;55982;51.476;7.552;2023-07-22T13:19:42;3.83;;;2.15;;
68940;SDS011;55982;51.476;7.552;2023-07-22T13:22:07;4.38;;;2.17;;
68940;SDS011;55982;51.476;7.552;2023-07-22T13:24:33;2.83;;;2.35;;
68940;SDS011;55982;51.476;7.552;2023-07-22T13:26:58;2.47;;;2.28;;
68940;SDS011;55982;51.476;7.552;2023-07-22T13:29:23;4.85;;;2.20;;
68940;SDS011;55982;51.476;7.552;2023-07-22T13:31:49;2.80;;;2.38;;
68940;SDS011;55982;51.476;7.552;2023-07-22T13:34:14;2.65;;;2.38;;
68940;SDS011;55982;51.476;7.552;2023-07-22T13:36:40;3.72;;;2.38;;
68940;SDS011;55982;51.476;7.552;2023-07-22T13:39:05;3.90;;;2.60;;
68940;SDS011;55982;51.476;7.552;2023-07-22T13:41:31;3.13;;;2.45;;
68940;SDS011;55982;51.476;7.552;2023-07-22T13:43:56;2.45;;;2.13;;
68940;SDS011;55982;51.476;7.552;2023-07-22T13:46:21;2.45;;;2.22;;
68940;SDS011;55982;51.476;7.552;2023-07-22T13:48:47;2.95;;;2.53;;
68940;SDS011;55982;51.476;7.552;2023-07-22T13:51:13;4.40;;;2.42;;
68940;SDS011;55982;51.476;7.552;2023-07-22T13:53:38;3.25;;;2.40;;
68940;SDS011;55982;51.476;7.552;2023-07-22T13:56:04;2.53;;;2.17;;
68940;SDS011;55982;51.476;7.552;2023-07-22T13:58:29;4.25;;;2.60;;
68940;SDS011;55982;51.476;7.552;2023-07-22T14:00:54;3.60;;;2.75;;
68940;SDS011;55982;51.476;7.552;2023-07-22T14:03:20;5.72;;;2.35;;
68940;SDS011;55982;51.476;7.552;2023-07-22T14:05:45;3.53;;;2.30;;
68940;SDS011;55982;51.476;7.552;2023-07-22T14:08:11;2.72;;;2.38;;
68940;SDS011;55982;51.476;7.552;2023-07-22T14:10:36;3.35;;;2.47;;
68940;SDS011;55982;51.476;7.552;2023-07-22T14:13:02;3.83;;;2.70;;
68940;SDS011;55982;51.476;7.552;2023-07-22T14:15:27;2.95;;;2.10;;
68940;SDS011;55982;51.476;7.552;2023-07-22T14:17:53;3.88;;;2.75;;
68940;SDS011;55982;51.476;7.552;2023-07-22T14:20:18;3.38;;;2.13;;
68940;SDS011;55982;51.476;7.552;2023-07-22T14:22:44;4.82;;;2.70;;
68940;SDS011;55982;51.476;7.552;2023-07-22T14:25:10;3.47;;;2.20;;
68940;SDS011;55982;51.476;7.552;2023-07-22T14:27:37;2.83;;;2.47;;
68940;SDS011;55982;51.476;7.552;2023-07-22T14:30:03;3.42;;;2.80;;
68940;SDS011;55982;51.476;7.552;2023-07-22T14:32:30;3.10;;;2.53;;
68940;SDS011;55982;51.476;7.552;2023-07-22T14:34:56;2.63;;;2.42;;
68940;SDS011;55982;51.476;7.552;2023-07-22T14:37:21;3.78;;;2.25;;
68940;SDS011;55982;51.476;7.552;2023-07-22T14:39:47;3.08;;;2.78;;